Latest Weather Observations for Adelaide (West Terrace / ngayirdapira)

IDS60801

Issued at 10:21 pm CST Monday 19 August 2019 (issued every 10 minutes, with the page automatically refreshed every 10 minutes)

About weather observations | Map of weather stations | Latest weather observations for SA | Other Formats
Station Details ID: 023000 Name: ADELAIDE (WEST TERRACE / NGAYIRDAPIRA) Lat: -34.93 Lon: 138.58 Height: 29.32 m
Data from the previous 72 hours. | See also: Recent months at Adelaide (West Terrace / ngayirdapira)
Date/Time
CST
Temp
°C
App
Temp
°C
Dew
Point
°C
Rel
Hum
%
Delta-T
°C
Wind Press
QNH
hPa
Press
MSL
hPa
Rain since
9am
mm
Dir  Spd
km/h
Gust
km/h
Spd
kts
Gust
kts
19/10:00pm 10.7 7.7 7.8 82 1.4 W 13 19 7 10 1031.8 1031.9 0.2
19/09:30pm 11.1 8.9 8.0 81 1.5 WSW 9 15 5 8 1031.6 1031.7 0.2
19/09:00pm 10.8 8.5 7.5 80 1.6 W 9 17 5 9 1031.5 1031.6 0.2
19/08:30pm 10.9 8.5 7.2 78 1.8 WSW 9 13 5 7 1031.5 1031.6 0.2
19/08:00pm 10.8 8.3 6.6 75 2.0 WSW 9 13 5 7 1031.2 1031.3 0.2
19/07:30pm 11.1 8.3 6.8 75 2.0 WSW 11 19 6 10 1031.1 1031.2 0.2
19/07:00pm 10.6 9.1 6.7 77 1.8 WSW 4 7 2 4 1030.6 1030.7 0.2
19/06:30pm 11.1 9.6 7.0 76 1.9 WSW 4 9 2 5 1030.4 1030.5 0.2
19/06:00pm 11.2 9.2 6.9 75 2.0 SW 7 11 4 6 1030.2 1030.3 0.2
19/05:30pm 11.3 8.7 6.2 71 2.4 SW 9 15 5 8 1029.9 1030.0 0.2
19/05:00pm 11.8 9.2 6.1 68 2.7 SW 9 15 5 8 1029.6 1029.7 0.2
19/04:30pm 12.0 8.5 5.6 65 3.0 WSW 13 24 7 13 1029.3 1029.4 0.2
19/04:00pm 12.1 8.3 5.9 66 2.9 SW 15 24 8 13 1029.1 1029.2 0.2
19/03:30pm 13.1 9.9 6.9 66 3.0 SW 13 20 7 11 1029.0 1029.1 0.2
19/03:00pm 12.1 7.7 5.0 62 3.2 SW 17 26 9 14 1029.0 1029.1 0.2
19/02:30pm 12.5 10.2 7.6 72 2.4 SW 9 17 5 9 1028.9 1028.9 0.2
19/02:13pm 10.7 8.1 7.8 82 1.4 SSW 11 17 6 9 1029.0 1029.1 0.2
19/02:00pm 10.6 7.3 8.2 85 1.2 SSW 15 26 8 14 1029.1 1029.2 0.2
19/01:58pm 10.8 7.5 7.9 82 1.4 SSW 15 30 8 16 1029.1 1029.2 0.2
19/01:30pm 12.3 8.0 5.2 62 3.3 WSW 17 26 9 14 1028.7 1028.7 0.2
19/01:00pm 12.6 7.6 4.8 59 3.6 WSW 20 30 11 16 1028.8 1028.8 0.2
19/12:30pm 12.9 8.8 6.0 63 3.2 SW 17 30 9 16 1028.8 1028.8 0.2
19/12:00pm 12.8 8.6 5.9 63 3.2 WSW 17 30 9 16 1028.7 1028.7 0.0
19/11:30am 12.9 8.1 5.8 62 3.3 SW 20 32 11 17 1028.7 1028.7 0.0
19/11:00am 11.9 7.0 5.3 64 3.0 WSW 20 32 11 17 1028.6 1028.6 0.0
19/10:30am 11.7 7.3 4.9 63 3.1 SW 17 28 9 15 1028.3 1028.3 0.0
19/10:00am 12.0 7.0 4.5 60 3.4 SW 20 35 11 19 1028.0 1028.0 0.0
19/09:30am 11.2 6.7 4.0 61 3.2 SW 17 28 9 15 1027.7 1027.7 0.0
19/09:00am 10.5 6.0 4.0 64 2.9 SW 17 32 9 17 1027.2 1027.2 10.4
19/08:30am 10.3 6.1 3.6 63 2.9 SW 15 26 8 14 1026.6 1026.6 10.4
19/08:00am 9.7 5.0 3.2 64 2.8 SW 17 28 9 15 1026.0 1026.0 10.4
19/07:30am 9.1 5.5 3.1 66 2.6 SW 11 20 6 11 1025.4 1025.4 10.4
19/07:00am 8.8 4.4 2.8 66 2.5 SW 15 28 8 15 1024.9 1024.9 10.4
19/06:30am 9.1 4.5 3.5 68 2.4 SSW 17 28 9 15 1024.4 1024.4 10.4
19/06:00am 9.3 4.8 2.2 61 3.0 SW 15 32 8 17 1024.0 1024.0 10.4
19/05:30am 8.4 4.6 3.7 72 2.0 SW 13 24 7 13 1023.6 1023.6 10.4
19/05:00am 8.9 4.0 2.3 63 2.8 SW 17 26 9 14 1023.2 1023.2 10.4
19/04:30am 8.7 3.8 2.3 64 2.7 SW 17 32 9 17 1023.0 1023.0 10.4
19/04:00am 9.0 3.0 1.2 58 3.2 SW 22 33 12 18 1022.8 1022.8 10.4
19/03:30am 9.0 4.1 1.9 61 2.9 SW 17 28 9 15 1022.8 1022.8 10.4
19/03:00am 9.0 4.2 2.6 64 2.7 SW 17 28 9 15 1022.6 1022.6 10.4
19/02:30am 8.6 4.6 2.8 67 2.4 SW 13 20 7 11 1022.5 1022.5 10.4
19/02:00am 8.5 3.7 2.7 67 2.4 SW 17 30 9 16 1022.4 1022.4 10.4
19/01:30am 8.5 3.7 2.5 66 2.5 SW 17 28 9 15 1022.4 1022.4 10.4
19/01:00am 8.6 3.8 2.6 66 2.5 SW 17 28 9 15 1022.1 1022.1 10.4
19/12:30am 9.0 3.8 2.6 64 2.7 SW 19 37 10 20 1021.8 1021.8 10.4
19/12:00am 8.4 3.6 2.4 66 2.5 SW 17 28 9 15 1021.4 1021.4 10.4
 
Date/Time
CST
Temp
°C
App
Temp
°C
Dew
Point
°C
Rel
Hum
%
Delta-T
°C
Wind Press
QNH
hPa
Press
MSL
hPa
Rain since
9am
mm
Dir  Spd
km/h
Gust
km/h
Spd
kts
Gust
kts
18/11:30pm 8.7 4.0 3.3 69 2.3 SW 17 33 9 18 1021.1 1021.1 10.4
18/11:00pm 8.4 3.9 2.0 64 2.7 SW 15 30 8 16 1021.0 1021.0 10.4
18/10:30pm 8.5 4.1 2.9 68 2.4 SW 15 24 8 13 1020.6 1020.6 10.4
18/10:00pm 8.9 4.2 3.3 68 2.4 SW 17 28 9 15 1020.2 1020.2 10.4
18/09:30pm 9.2 3.4 2.1 61 3.0 SW 22 39 12 21 1019.8 1019.8 10.4
18/09:00pm 9.0 3.2 2.1 62 2.9 SW 22 37 12 20 1019.6 1019.6 10.4
18/08:30pm 9.2 4.9 3.0 65 2.6 SW 15 30 8 16 1019.0 1019.0 10.4
18/08:00pm 8.8 4.9 3.2 68 2.4 WSW 13 28 7 15 1018.2 1018.2 10.4
18/07:30pm 7.7 2.5 2.6 70 2.1 W 19 33 10 18 1017.8 1017.8 10.4
18/07:09pm 8.0 2.8 3.7 74 1.9 SW 20 43 11 23 1017.3 1017.3 10.4
18/07:00pm 8.1 2.4 3.0 70 2.2 WSW 22 44 12 24 1017.2 1017.2 10.4
18/06:52pm 8.5 2.9 3.6 71 2.1 WSW 22 39 12 21 1016.9 1016.9 10.0
18/06:30pm 9.3 5.6 4.7 73 2.0 WNW 13 24 7 13 1016.3 1016.3 9.2
18/06:00pm 8.7 4.8 5.4 80 1.5 WNW 15 24 8 13 1015.9 1015.9 9.2
18/05:30pm 8.5 4.6 5.4 81 1.4 WNW 15 24 8 13 1015.6 1015.6 9.2
18/05:00pm 8.3 4.1 5.6 83 1.2 WNW 17 30 9 16 1015.1 1015.1 9.2
18/04:30pm 7.4 4.5 4.9 84 1.1 WNW 9 17 5 9 1014.7 1014.7 9.2
18/04:25pm 7.2 4.9 5.0 86 1.0 WNW 6 9 3 5 1014.5 1014.5 9.2
18/04:01pm 7.4 0.2 5.2 86 1.0 W 32 50 17 27 1014.9 1014.9 8.0
18/04:00pm 7.4 0.2 5.2 86 1.0 W 32 50 17 27 1014.9 1014.9 8.0
18/03:55pm 7.7 1.3 5.2 84 1.1 W 28 50 15 27 1014.7 1014.7 7.6
18/03:30pm 8.7 3.9 4.9 77 1.7 WNW 19 33 10 18 1013.7 1013.7 7.2
18/03:00pm 7.8 2.9 4.9 82 1.3 W 20 43 11 23 1013.6 1013.6 7.2
18/02:50pm 8.3 1.8 4.5 77 1.7 W 28 48 15 26 1013.4 1013.4 6.4
18/02:47pm 8.3 2.6 4.9 79 1.5 W 24 43 13 23 1013.2 1013.2 6.4
18/02:37pm 8.2 3.5 5.3 82 1.3 WNW 19 30 10 16 1012.9 1012.9 6.2
18/02:30pm 7.9 3.1 4.7 80 1.4 NW 19 30 10 16 1012.7 1012.7 5.8
18/02:29pm 7.8 3.0 4.4 79 1.5 NW 19 30 10 16 1012.7 1012.7 5.6
18/02:06pm 8.3 2.6 5.1 80 1.4 W 24 41 13 22 1012.4 1012.4 5.0
18/02:00pm 9.2 3.9 5.0 75 1.9 W 22 41 12 22 1012.6 1012.6 4.6
18/01:30pm 10.0 5.9 4.4 68 2.5 W 15 26 8 14 1012.2 1012.2 4.4
18/01:00pm 9.7 6.5 5.1 73 2.1 WNW 11 20 6 11 1012.3 1012.3 4.4
18/12:30pm 8.2 4.3 5.5 83 1.2 WSW 15 26 8 14 1012.5 1012.5 4.4
18/12:20pm 7.6 3.3 5.2 85 1.1 WSW 17 30 9 16 1012.5 1012.5 4.4
18/12:00pm 7.5 0.7 5.1 85 1.1 W 30 54 16 29 1012.9 1012.9 4.0
18/11:55am 7.8 2.1 5.1 83 1.2 WSW 24 52 13 28 1012.7 1012.7 3.0
18/11:49am 10.1 5.7 6.4 78 1.7 WSW 19 32 10 17 1012.0 1012.0 0.4
18/11:30am 11.6 6.2 4.6 62 3.2 W 22 39 12 21 1012.2 1012.2 0.0
18/11:00am 11.3 6.4 5.2 66 2.8 W 20 33 11 18 1012.2 1012.2 0.0
18/10:30am 9.6 4.0 5.4 75 1.9 WSW 24 44 13 24 1012.1 1012.1 0.0
18/10:07am 10.5 3.8 5.5 71 2.3 WNW 30 69 16 37 1011.8 1011.8 0.0
18/10:05am 11.2 4.9 5.7 69 2.5 WNW 28 50 15 27 1011.6 1011.6 0.0
18/10:00am 11.4 5.5 5.7 68 2.6 WNW 26 43 14 23 1011.5 1011.5 0.0
18/09:41am 11.2 4.9 5.5 68 2.6 WNW 28 46 15 25 1011.4 1011.4 0.0
18/09:30am 11.8 7.1 6.1 68 2.7 W 20 35 11 19 1011.4 1011.4 0.0
18/09:00am 11.2 6.4 5.5 68 2.6 W 20 33 11 18 1011.2 1011.2 2.0
18/08:30am 10.7 5.9 5.5 70 2.4 W 20 33 11 18 1011.3 1011.3 2.0
18/08:01am 11.2 4.8 5.3 67 2.7 W 28 48 15 26 1010.8 1010.8 2.0
18/08:00am 11.2 5.2 5.3 67 2.7 W 26 48 14 26 1010.8 1010.8 2.0
18/07:30am 10.9 4.9 5.4 69 2.5 WNW 26 54 14 29 1010.3 1010.3 2.0
18/07:18am 11.2 4.8 5.1 66 2.8 WNW 28 50 15 27 1010.3 1010.3 2.0
18/07:00am 11.4 7.1 7.9 79 1.7 WNW 20 33 11 18 1010.0 1010.0 2.0
18/06:30am 12.0 7.4 8.1 77 1.9 NW 22 41 12 22 1009.6 1009.6 2.0
18/06:00am 11.8 8.1 8.1 78 1.8 NW 17 30 9 16 1009.6 1009.6 2.0
18/05:30am 12.2 9.2 9.2 82 1.5 WNW 15 20 8 11 1009.5 1009.5 2.0
18/05:00am 12.2 9.7 9.8 85 1.2 NW 13 22 7 12 1009.7 1009.7 2.0
18/04:30am 12.3 9.9 10.0 86 1.2 NW 13 20 7 11 1009.6 1009.6 2.0
18/04:00am 12.4 9.7 10.5 88 1.0 NW 15 22 8 12 1009.6 1009.6 2.0
18/03:30am 12.3 10.5 10.9 91 0.7 NNW 11 15 6 8 1009.5 1009.5 1.8
18/03:02am 12.6 10.4 10.8 89 0.9 NW 13 28 7 15 1009.5 1009.5 1.6
18/03:00am 12.7 10.5 10.8 88 1.0 NW 13 28 7 15 1009.5 1009.5 1.4
18/02:51am 12.9 11.9 11.0 88 1.0 NW 7 11 4 6 1009.7 1009.7 1.0
18/02:30am 13.3 11.7 10.1 81 1.7 NW 9 15 5 8 1009.5 1009.5 0.0
18/02:00am 13.7 11.8 9.2 74 2.3 N 9 13 5 7 1009.6 1009.6 0.0
18/01:30am 14.4 12.4 8.8 69 2.8 N 9 13 5 7 1009.7 1009.7 0.0
18/01:00am 14.2 12.7 9.0 71 2.6 N 7 9 4 5 1009.6 1009.6 0.0
18/12:30am 13.2 12.1 8.3 72 2.4 N 4 7 2 4 1009.5 1009.5 0.0
18/12:00am 14.1 12.6 8.3 68 2.9 NNE 6 11 3 6 1009.2 1009.2 0.0
 
Date/Time
CST
Temp
°C
App
Temp
°C
Dew
Point
°C
Rel
Hum
%
Delta-T
°C
Wind Press
QNH
hPa
Press
MSL
hPa
Rain since
9am
mm
Dir  Spd
km/h
Gust
km/h
Spd
kts
Gust
kts
17/11:30pm 15.4 13.4 8.6 64 3.5 NNE 9 13 5 7 1009.3 1009.3 0.0
17/11:00pm 14.8 13.4 8.7 67 3.1 NNE 6 9 3 5 1009.6 1009.6 0.0
17/10:30pm 14.0 13.7 8.6 70 2.7 CALM 0 6 0 3 1009.6 1009.6 0.0
17/10:00pm 14.8 14.0 8.1 64 3.4 WNW 2 7 1 4 1009.8 1009.8 0.0
17/09:30pm 16.3 14.5 8.0 58 4.2 N 7 11 4 6 1010.0 1010.0 0.0
17/09:00pm 17.2 15.0 7.8 54 4.8 NNE 9 15 5 8 1010.1 1010.1 0.0
17/08:30pm 16.9 14.8 8.1 56 4.5 NE 9 15 5 8 1010.3 1010.3 0.0
17/08:00pm 17.0 14.9 8.4 57 4.4 NE 9 13 5 7 1010.8 1010.8 0.0
17/07:30pm 17.1 15.1 8.5 57 4.4 NNE 9 17 5 9 1010.9 1010.9 0.0
17/07:00pm 16.9 14.5 8.6 58 4.3 NNE 11 17 6 9 1010.6 1010.6 0.0
17/06:30pm 17.0 14.2 8.7 58 4.3 NNE 13 26 7 14 1010.7 1010.7 0.0
17/06:00pm 17.0 14.2 8.7 58 4.3 NNE 13 20 7 11 1010.9 1010.9 0.0
17/05:30pm 17.3 14.6 9.0 58 4.3 NNE 13 20 7 11 1011.3 1011.3 0.0
17/05:00pm 17.5 14.0 8.9 57 4.5 NNE 17 28 9 15 1011.7 1011.7 0.0
17/04:30pm 17.9 14.5 9.0 56 4.6 NNE 17 28 9 15 1011.5 1011.5 0.0
17/04:00pm 18.0 15.0 9.1 56 4.6 NNE 15 24 8 13 1011.8 1011.8 0.0
17/03:30pm 18.2 14.8 9.3 56 4.7 NNE 17 26 9 14 1012.0 1012.0 0.0
17/03:00pm 17.9 14.5 9.0 56 4.6 NNE 17 28 9 15 1012.5 1012.5 0.0
17/02:30pm 18.4 15.1 9.7 57 4.6 N 17 28 9 15 1012.9 1012.9 0.0
17/02:00pm 17.5 13.9 8.4 55 4.7 N 17 26 9 14 1013.7 1013.7 0.0
17/01:30pm 18.6 15.2 9.1 54 5.0 N 17 28 9 15 1014.2 1014.2 0.0
17/01:00pm 17.4 13.3 8.5 56 4.6 N 20 32 11 17 1014.7 1014.7 0.0
17/12:30pm 17.1 13.3 7.5 53 4.8 N 17 30 9 16 1015.5 1015.5 0.0
17/12:00pm 16.4 12.5 7.1 54 4.6 N 17 28 9 15 1016.2 1016.2 0.0
17/11:30am 16.2 11.9 7.2 55 4.5 NNE 19 30 10 16 1016.8 1016.8 0.0
17/11:00am 15.2 10.6 5.7 53 4.5 N 19 32 10 17 1017.4 1017.4 0.0
17/10:30am 15.0 10.3 6.0 55 4.3 NNE 20 32 11 17 1017.6 1017.6 0.0
17/10:00am 14.1 9.5 5.7 57 4.0 NNE 19 30 10 16 1017.9 1017.9 0.0
17/09:30am 12.9 8.9 4.8 58 3.7 NE 15 28 8 15 1018.3 1018.3 0.0
17/09:00am 11.5 7.5 4.9 64 3.0 NE 15 28 8 15 1018.9 1018.9 0.0
17/08:30am 11.1 7.5 5.0 66 2.8 ENE 13 19 7 10 1019.0 1019.0 0.0
17/08:00am 10.1 6.4 4.7 69 2.4 ENE 13 20 7 11 1019.1 1019.1 0.0
17/07:30am 9.0 5.3 4.4 73 2.0 ENE 13 19 7 10 1019.3 1019.3 0.0
17/07:00am 7.7 4.7 4.3 79 1.5 NE 9 17 5 9 1019.5 1019.5 0.0
17/06:30am 8.2 5.3 4.4 77 1.7 NE 9 15 5 8 1019.6 1019.6 0.0
17/06:00am 8.2 5.4 5.0 80 1.4 NNE 9 13 5 7 1019.6 1019.6 0.0
17/05:30am 8.1 5.6 4.9 80 1.4 NE 7 11 4 6 1019.4 1019.4 0.0
17/05:00am 8.6 5.8 5.0 78 1.6 NNE 9 13 5 7 1019.3 1019.3 0.0
17/04:30am 8.8 6.1 5.4 79 1.5 NE 9 11 5 6 1019.2 1019.2 0.0
17/04:00am 7.2 6.1 5.0 86 1.0 CALM 0 0 0 0 1019.6 1019.6 0.0
17/03:30am 8.7 6.9 5.4 80 1.5 N 4 7 2 4 1019.6 1019.6 0.0
17/03:00am 10.0 7.6 5.4 73 2.1 NNE 7 9 4 5 1019.9 1019.9 0.0
17/02:30am 10.1 8.0 5.9 75 1.9 NNE 6 9 3 5 1020.2 1020.2 0.0
17/02:00am 10.6 8.3 5.6 71 2.3 ENE 7 11 4 6 1020.5 1020.5 0.0
17/01:30am 9.2 7.3 6.6 84 1.2 NE 6 9 3 5 1020.8 1020.8 0.0
17/01:00am 7.8 6.9 6.1 89 0.8 CALM 0 0 0 0 1021.1 1021.1 0.0
17/12:30am 6.9 5.4 5.2 89 0.7 NE 2 6 1 3 1021.1 1021.1 0.0
17/12:00am 7.4 6.3 5.2 86 1.0 CALM 0 0 0 0 1021.1 1021.1 0.0
 
Date/Time
CST
Temp
°C
App
Temp
°C
Dew
Point
°C
Rel
Hum
%
Delta-T
°C
Wind Press
QNH
hPa
Press
MSL
hPa
Rain since
9am
mm
Dir  Spd
km/h
Gust
km/h
Spd
kts
Gust
kts
16/11:30pm 8.3 6.2 5.9 85 1.1 ESE 6 11 3 6 1021.2 1021.2 0.0
16/11:00pm 7.7 5.5 5.3 85 1.1 SSE 6 7 3 4 1021.4 1021.4 0.0
16/10:30pm 8.4 6.3 5.9 84 1.1 S 6 6 3 3 1021.3 1021.3 0.0

Other formats

Comma delimited format used in spreadsheet applications
http://www.bom.gov.au/fwo/IDS60801/IDS60801.94648.axf

JavaScript Object Notation format (JSON) in row-major order
http://www.bom.gov.au/fwo/IDS60801/IDS60801.94648.json

Data quality

Most of these data are generated automatically and are frequently updated. Quality checks on data are not normally performed. It is possible for incorrect values to appear. Refer to information at About Latest Weather Observations and please check the disclaimer before using these data.